createdAt,value
2022-12-23T00:01:25.552Z,2.65
2022-12-23T00:03:58.093Z,2.45
2022-12-23T00:06:26.775Z,2.35
2022-12-23T00:08:58.622Z,2.20
2022-12-23T00:11:29.746Z,2.22
2022-12-23T00:14:21.010Z,2.22
2022-12-23T00:16:50.904Z,2.12
2022-12-23T00:19:21.170Z,2.11
2022-12-23T00:21:49.864Z,2.05
2022-12-23T00:24:18.061Z,1.99
2022-12-23T00:26:46.265Z,1.94
2022-12-23T00:29:14.609Z,1.93
2022-12-23T00:31:42.838Z,1.83
2022-12-23T00:34:12.046Z,1.77
2022-12-23T00:36:41.762Z,1.86
2022-12-23T00:39:31.300Z,1.90
2022-12-23T00:42:16.778Z,1.89
2022-12-23T00:44:45.391Z,1.88
2022-12-23T00:47:36.314Z,1.94
2022-12-23T00:50:03.645Z,1.99
2022-12-23T00:52:33.306Z,1.99
2022-12-23T00:55:01.513Z,1.99
2022-12-23T00:57:29.688Z,1.89
2022-12-23T00:59:57.788Z,1.81
2022-12-23T01:02:43.468Z,1.72
2022-12-23T01:05:29.691Z,1.53
2022-12-23T01:07:59.409Z,1.47
2022-12-23T01:10:27.593Z,1.54
2022-12-23T01:12:55.993Z,1.48
2022-12-23T01:15:24.833Z,1.47
2022-12-23T01:17:53.736Z,1.54
2022-12-23T01:20:21.853Z,1.64
2022-12-23T01:22:50.304Z,1.72
2022-12-23T01:25:19.823Z,1.72
2022-12-23T01:27:48.049Z,1.61
2022-12-23T01:30:16.472Z,1.62
2022-12-23T01:32:44.737Z,1.66
2022-12-23T01:35:12.930Z,1.67
2022-12-23T01:37:41.488Z,1.62
2022-12-23T01:40:10.813Z,1.64
2022-12-23T01:42:45.096Z,1.72
2022-12-23T01:45:19.612Z,1.75
2022-12-23T01:47:53.833Z,1.81
2022-12-23T01:50:25.503Z,1.91
2022-12-23T01:53:06.966Z,1.97
2022-12-23T01:55:39.930Z,1.93
2022-12-23T01:58:14.592Z,1.86
2022-12-23T02:01:01.453Z,1.79
2022-12-23T02:03:46.341Z,1.83
2022-12-23T02:06:38.123Z,1.79
2022-12-23T02:09:18.389Z,1.90
2022-12-23T02:12:15.203Z,1.77
2022-12-23T02:15:19.521Z,1.74
2022-12-23T02:17:58.939Z,1.90
2022-12-23T02:21:11.396Z,1.89
2022-12-23T02:24:21.197Z,1.92
2022-12-23T02:27:11.392Z,1.91
2022-12-23T02:30:09.656Z,1.90
2022-12-23T02:32:54.953Z,1.89
2022-12-23T02:35:32.599Z,1.91
2022-12-23T02:38:10.537Z,1.91
2022-12-23T02:40:44.846Z,1.99
2022-12-23T02:43:19.370Z,2.01
2022-12-23T02:45:54.805Z,1.88
2022-12-23T02:48:32.372Z,1.75
2022-12-23T02:51:03.003Z,1.64
2022-12-23T02:53:35.738Z,1.71
2022-12-23T02:56:07.170Z,1.78
2022-12-23T02:58:41.616Z,1.79
2022-12-23T03:01:12.007Z,1.84
2022-12-23T03:03:43.036Z,1.85
2022-12-23T03:06:20.888Z,1.87
2022-12-23T03:08:50.950Z,1.91
2022-12-23T03:11:19.923Z,1.90
2022-12-23T03:14:16.899Z,1.91
2022-12-23T03:16:54.455Z,1.74
2022-12-23T03:19:29.315Z,1.62
2022-12-23T03:22:07.409Z,1.61
2022-12-23T03:24:42.632Z,1.63
2022-12-23T03:27:17.541Z,1.50
2022-12-23T03:29:55.996Z,1.44
2022-12-23T03:32:28.787Z,1.53
2022-12-23T03:35:01.853Z,1.57
2022-12-23T03:37:33.859Z,1.58
2022-12-23T03:40:06.257Z,1.52
2022-12-23T03:42:38.095Z,1.50
2022-12-23T03:48:07.097Z,1.64
2022-12-23T03:50:39.292Z,1.69
2022-12-23T03:53:18.747Z,1.66
2022-12-23T03:55:53.607Z,1.51
2022-12-23T03:58:40.715Z,1.49
2022-12-23T04:01:22.203Z,1.35
2022-12-23T04:04:00.228Z,1.33
2022-12-23T04:06:37.648Z,1.33
2022-12-23T04:09:06.695Z,1.45
2022-12-23T04:11:36.711Z,1.52
2022-12-23T04:14:04.850Z,1.56
2022-12-23T04:16:33.863Z,1.46
2022-12-23T04:19:02.211Z,1.57
2022-12-23T04:21:31.731Z,1.70
2022-12-23T04:23:59.905Z,1.79
2022-12-23T04:26:28.244Z,1.85
2022-12-23T04:28:56.551Z,1.88
2022-12-23T04:31:24.806Z,1.94
2022-12-23T04:33:53.208Z,1.95
2022-12-23T04:36:21.410Z,1.98
2022-12-23T04:38:51.116Z,2.01
2022-12-23T04:41:19.259Z,1.99
2022-12-23T04:43:53.092Z,2.01
2022-12-23T04:46:21.787Z,2.02
2022-12-23T04:48:49.994Z,2.08
2022-12-23T04:51:18.220Z,2.11
2022-12-23T04:53:46.428Z,2.11
2022-12-23T04:56:16.088Z,2.03
2022-12-23T04:58:44.214Z,2.01
2022-12-23T05:01:21.595Z,2.05
2022-12-23T05:03:49.692Z,2.03
2022-12-23T05:06:17.814Z,2.01
2022-12-23T05:08:45.950Z,2.10
2022-12-23T05:11:15.569Z,2.30
2022-12-23T05:13:43.951Z,2.41
2022-12-23T05:16:12.344Z,2.48
2022-12-23T05:18:40.615Z,2.60
2022-12-23T05:21:08.828Z,2.78
2022-12-23T05:23:37.062Z,2.84
2022-12-23T05:26:06.635Z,2.78
2022-12-23T05:28:36.486Z,2.80
2022-12-23T05:31:06.970Z,2.80
2022-12-23T05:33:36.267Z,3.03
2022-12-23T05:36:06.564Z,3.22
2022-12-23T05:38:34.924Z,3.27
2022-12-23T05:41:03.798Z,3.27
2022-12-23T05:43:32.295Z,3.42
2022-12-23T05:46:02.029Z,3.60
2022-12-23T05:48:30.227Z,3.73
2022-12-23T05:50:58.542Z,3.73
2022-12-23T05:53:27.084Z,3.83
2022-12-23T05:55:55.292Z,4.06
2022-12-23T05:58:24.100Z,4.17
2022-12-23T06:00:52.424Z,4.22
2022-12-23T06:03:22.281Z,4.39
2022-12-23T06:05:52.011Z,4.37
2022-12-23T06:08:20.574Z,4.41
2022-12-23T06:10:49.269Z,4.49
2022-12-23T06:13:17.484Z,4.55
2022-12-23T06:15:45.563Z,4.64
2022-12-23T06:18:13.751Z,4.67
2022-12-23T06:20:43.295Z,4.68
2022-12-23T06:23:11.437Z,4.74
2022-12-23T06:25:39.608Z,4.72
2022-12-23T06:28:08.397Z,4.76
2022-12-23T06:30:36.518Z,4.90
2022-12-23T06:33:04.819Z,5.07
2022-12-23T06:35:33.010Z,5.23
2022-12-23T06:38:03.336Z,5.46
2022-12-23T06:40:33.575Z,5.70
2022-12-23T06:43:01.666Z,5.91
2022-12-23T06:45:29.799Z,6.11
2022-12-23T06:47:57.929Z,6.34
2022-12-23T06:50:26.088Z,6.48
2022-12-23T06:52:54.164Z,6.61
2022-12-23T06:55:25.008Z,6.65
2022-12-23T06:57:53.201Z,6.80
2022-12-23T07:00:21.810Z,6.98
2022-12-23T07:02:50.096Z,7.04
2022-12-23T07:05:18.468Z,7.13
2022-12-23T07:07:46.534Z,7.26
2022-12-23T07:10:14.689Z,7.39
2022-12-23T07:12:50.399Z,7.44
2022-12-23T07:15:20.116Z,7.40
2022-12-23T07:17:48.308Z,7.48
2022-12-23T07:20:17.031Z,7.50
2022-12-23T07:22:45.237Z,7.51
2022-12-23T07:25:13.811Z,7.52
2022-12-23T07:27:43.831Z,7.58
2022-12-23T07:30:12.592Z,7.60
2022-12-23T07:32:41.889Z,7.49
2022-12-23T07:35:10.617Z,7.55
2022-12-23T07:37:38.733Z,7.63
2022-12-23T07:40:08.972Z,7.67
2022-12-23T07:42:46.595Z,7.89
2022-12-23T07:45:16.841Z,8.03
2022-12-23T07:47:45.259Z,8.13
2022-12-23T07:50:16.874Z,8.05
2022-12-23T07:52:44.977Z,8.07
2022-12-23T07:55:13.511Z,8.14
2022-12-23T07:57:42.747Z,8.16
2022-12-23T08:00:14.384Z,8.20
2022-12-23T08:02:44.280Z,8.22
2022-12-23T08:05:13.916Z,8.11
2022-12-23T08:07:42.399Z,8.08
2022-12-23T08:10:11.312Z,7.97
2022-12-23T08:12:39.492Z,7.90
2022-12-23T08:15:09.510Z,7.84
2022-12-23T08:17:37.630Z,7.84
2022-12-23T08:20:08.638Z,7.86
2022-12-23T08:22:37.041Z,7.87
2022-12-23T08:25:06.842Z,7.89
2022-12-23T08:27:35.848Z,7.84
2022-12-23T08:30:04.310Z,7.89
2022-12-23T08:32:32.424Z,7.89
2022-12-23T08:35:00.584Z,7.84
2022-12-23T08:37:30.139Z,7.62
2022-12-23T08:39:58.226Z,7.59
2022-12-23T08:42:26.603Z,7.59
2022-12-23T08:44:54.754Z,7.42
2022-12-23T08:47:23.002Z,7.35
2022-12-23T08:49:51.111Z,7.34
2022-12-23T08:52:19.227Z,7.24
2022-12-23T08:54:48.954Z,7.19
2022-12-23T08:57:17.140Z,7.37
2022-12-23T08:59:45.411Z,7.36
2022-12-23T09:02:13.966Z,7.39
2022-12-23T09:04:42.366Z,7.28
2022-12-23T09:07:10.667Z,7.42
2022-12-23T09:09:39.134Z,7.55
2022-12-23T09:12:08.882Z,7.60
2022-12-23T09:14:36.974Z,7.68
2022-12-23T09:17:05.361Z,7.91
2022-12-23T09:19:34.142Z,8.04
2022-12-23T09:22:02.367Z,8.20
2022-12-23T09:24:30.586Z,8.18
2022-12-23T09:26:58.934Z,7.93
2022-12-23T09:29:28.480Z,7.67
2022-12-23T09:31:56.603Z,7.78
2022-12-23T09:34:24.826Z,7.73
2022-12-23T09:36:55.431Z,7.94
2022-12-23T09:39:24.423Z,8.09
2022-12-23T09:42:06.461Z,8.32
2022-12-23T09:44:44.777Z,8.48
2022-12-23T09:47:16.785Z,8.41
2022-12-23T09:49:48.669Z,8.48
2022-12-23T09:52:25.310Z,8.63
2022-12-23T09:54:56.590Z,8.82
2022-12-23T09:57:32.541Z,8.90
2022-12-23T10:00:14.258Z,8.90
2022-12-23T10:03:06.738Z,8.83
2022-12-23T10:05:47.183Z,8.97
2022-12-23T10:08:22.338Z,9.03
2022-12-23T10:10:55.360Z,9.09
2022-12-23T10:13:29.853Z,9.36
2022-12-23T10:16:04.577Z,9.79
2022-12-23T10:18:43.240Z,10.01
2022-12-23T10:21:17.301Z,10.04
2022-12-23T10:23:50.642Z,10.19
2022-12-23T10:26:24.995Z,10.26
2022-12-23T10:29:01.401Z,10.46
2022-12-23T10:31:42.424Z,10.48
2022-12-23T10:34:19.889Z,10.47
2022-12-23T10:36:59.799Z,10.55
2022-12-23T10:39:38.221Z,10.61
2022-12-23T10:42:16.287Z,10.54
2022-12-23T10:45:22.400Z,10.61
2022-12-23T10:48:06.101Z,10.80
2022-12-23T10:50:48.542Z,10.93
2022-12-23T10:53:29.338Z,11.03
2022-12-23T10:55:58.541Z,11.09
2022-12-23T10:58:27.688Z,11.22
2022-12-23T11:00:58.039Z,11.25
2022-12-23T11:03:32.192Z,11.35
2022-12-23T11:06:03.695Z,11.31
2022-12-23T11:08:34.411Z,11.34
2022-12-23T11:11:02.903Z,11.36
2022-12-23T11:13:39.819Z,11.21
2022-12-23T11:16:25.188Z,11.20
2022-12-23T11:19:03.346Z,10.81
2022-12-23T11:21:34.724Z,10.91
2022-12-23T11:24:15.802Z,10.68
2022-12-23T11:26:44.621Z,10.74
2022-12-23T11:29:19.040Z,10.60
2022-12-23T11:31:47.639Z,10.55
2022-12-23T11:34:19.984Z,10.76
2022-12-23T11:36:56.497Z,10.79
2022-12-23T11:39:31.180Z,10.68
2022-12-23T11:42:07.431Z,10.71
2022-12-23T11:44:40.909Z,10.82
2022-12-23T11:47:29.348Z,10.85
2022-12-23T11:50:01.471Z,10.68
2022-12-23T11:52:32.753Z,10.67
2022-12-23T11:55:02.673Z,10.65
2022-12-23T11:57:39.458Z,10.71
2022-12-23T12:00:10.219Z,10.54
2022-12-23T12:02:42.350Z,10.49
2022-12-23T12:05:22.850Z,10.51
2022-12-23T12:07:53.427Z,10.46
2022-12-23T12:10:26.461Z,10.30
2022-12-23T12:12:58.318Z,10.23
2022-12-23T12:15:37.192Z,10.17
2022-12-23T12:18:10.117Z,10.13
2022-12-23T12:20:43.723Z,10.02
2022-12-23T12:23:19.068Z,10.04
2022-12-23T12:25:53.734Z,10.00
2022-12-23T12:28:26.157Z,9.97
2022-12-23T12:31:00.045Z,9.87
2022-12-23T12:33:35.051Z,9.75
2022-12-23T12:36:14.144Z,9.73
2022-12-23T12:38:44.452Z,9.76
2022-12-23T12:41:20.574Z,9.61
2022-12-23T12:43:54.053Z,9.56
2022-12-23T12:46:31.826Z,9.51
2022-12-23T12:49:07.242Z,9.43
2022-12-23T12:51:41.687Z,9.47
2022-12-23T12:54:20.395Z,9.43
2022-12-23T12:56:51.164Z,9.45
2022-12-23T12:59:22.826Z,9.35
2022-12-23T13:02:24.239Z,9.25
2022-12-23T13:05:12.345Z,9.20
2022-12-23T13:07:53.289Z,9.11
2022-12-23T13:10:35.230Z,9.15
2022-12-23T13:13:11.268Z,9.13
2022-12-23T13:15:49.041Z,9.07
2022-12-23T13:18:31.761Z,9.03
2022-12-23T13:21:06.995Z,9.01
2022-12-23T13:23:44.814Z,8.98
2022-12-23T13:26:24.973Z,8.93
2022-12-23T13:29:02.773Z,9.03
2022-12-23T13:31:41.791Z,8.86
2022-12-23T13:34:22.620Z,8.75
2022-12-23T13:36:59.643Z,8.80
2022-12-23T13:39:40.904Z,8.72
2022-12-23T13:42:13.627Z,8.63
2022-12-23T13:44:41.995Z,8.56
2022-12-23T13:47:20.134Z,8.51
2022-12-23T13:49:59.180Z,8.37
2022-12-23T13:52:41.633Z,8.27
2022-12-23T13:55:23.361Z,8.27
2022-12-23T13:57:58.208Z,8.26
2022-12-23T14:00:30.308Z,8.22
2022-12-23T14:03:20.198Z,8.24
2022-12-23T14:05:50.807Z,8.16
2022-12-23T14:08:42.091Z,8.08
2022-12-23T14:11:19.465Z,8.05
2022-12-23T14:13:56.282Z,8.02
2022-12-23T14:16:47.225Z,8.08
2022-12-23T14:19:42.724Z,8.24
2022-12-23T14:22:47.129Z,8.29
2022-12-23T14:25:34.586Z,8.23
2022-12-23T14:28:17.484Z,8.19
2022-12-23T14:30:46.268Z,8.21
2022-12-23T14:33:25.330Z,8.14
2022-12-23T14:36:15.993Z,8.09
2022-12-23T14:38:44.165Z,7.97
2022-12-23T14:41:26.693Z,7.80
2022-12-23T14:44:01.806Z,7.70
2022-12-23T14:46:56.663Z,7.53
2022-12-23T14:49:39.880Z,7.47
2022-12-23T14:52:44.628Z,7.43
2022-12-23T14:55:41.187Z,7.46
2022-12-23T14:58:25.918Z,7.41
2022-12-23T15:01:02.216Z,7.40
2022-12-23T15:03:35.001Z,7.37
2022-12-23T15:06:07.348Z,7.34
2022-12-23T15:08:40.383Z,7.31
2022-12-23T15:11:10.942Z,7.26
2022-12-23T15:13:39.850Z,7.29
2022-12-23T15:16:17.280Z,7.37
2022-12-23T15:18:54.944Z,7.35
2022-12-23T15:21:31.844Z,7.32
2022-12-23T15:24:00.273Z,7.28
2022-12-23T15:26:31.589Z,7.28
2022-12-23T15:29:02.352Z,7.30
2022-12-23T15:31:37.171Z,7.26
2022-12-23T15:34:16.592Z,7.20
2022-12-23T15:36:48.619Z,7.14
2022-12-23T15:39:21.198Z,7.07
2022-12-23T15:41:50.127Z,7.07
2022-12-23T15:44:21.680Z,7.02
2022-12-23T15:46:52.205Z,6.98
2022-12-23T15:49:21.903Z,6.89
2022-12-23T15:52:13.989Z,6.84
2022-12-23T15:54:47.739Z,6.68
2022-12-23T15:57:21.454Z,6.52
2022-12-23T15:59:50.422Z,6.33
2022-12-23T16:02:58.867Z,6.17
2022-12-23T16:05:32.617Z,6.08
2022-12-23T16:08:12.065Z,5.97
2022-12-23T16:10:41.331Z,5.89
2022-12-23T16:13:18.672Z,5.82
2022-12-23T16:15:47.900Z,5.96
2022-12-23T16:18:28.636Z,5.98
2022-12-23T16:21:00.680Z,5.93
2022-12-23T16:23:31.964Z,5.93
2022-12-23T16:26:02.281Z,5.89
2022-12-23T16:28:38.626Z,5.85
2022-12-23T16:31:08.942Z,5.86
2022-12-23T16:33:43.846Z,5.82
2022-12-23T16:36:23.795Z,5.79
2022-12-23T16:38:53.864Z,5.66
2022-12-23T16:41:22.152Z,5.64
2022-12-23T16:43:52.827Z,5.56
2022-12-23T16:46:23.776Z,5.42
2022-12-23T16:48:55.881Z,5.32
2022-12-23T16:51:27.393Z,5.21
2022-12-23T16:54:02.298Z,5.09
2022-12-23T16:56:37.407Z,5.00
2022-12-23T16:59:06.337Z,4.97
2022-12-23T17:01:39.535Z,5.01
2022-12-23T17:04:10.361Z,4.99
2022-12-23T17:06:41.859Z,4.95
2022-12-23T17:09:11.680Z,4.85
2022-12-23T17:11:44.682Z,4.78
2022-12-23T17:14:21.323Z,4.81
2022-12-23T17:16:50.093Z,4.84
2022-12-23T17:19:29.310Z,4.91
2022-12-23T17:22:04.151Z,4.91
2022-12-23T17:24:32.481Z,4.78
2022-12-23T17:27:00.870Z,4.71
2022-12-23T17:29:29.199Z,4.59
2022-12-23T17:31:57.921Z,4.53
2022-12-23T17:34:27.577Z,4.46
2022-12-23T17:36:55.956Z,4.39
2022-12-23T17:39:27.124Z,4.35
2022-12-23T17:41:55.524Z,4.33
2022-12-23T17:44:24.119Z,4.32
2022-12-23T17:46:52.247Z,4.28
2022-12-23T17:49:20.520Z,4.22
2022-12-23T17:51:50.479Z,4.13
2022-12-23T17:54:23.849Z,4.06
2022-12-23T17:56:52.749Z,4.06
2022-12-23T17:59:21.701Z,4.05
2022-12-23T18:01:50.299Z,4.03
2022-12-23T18:04:18.692Z,4.04
2022-12-23T18:06:46.958Z,4.07
2022-12-23T18:09:16.898Z,3.98
2022-12-23T18:11:47.355Z,4.02
2022-12-23T18:14:18.802Z,4.02
2022-12-23T18:16:47.842Z,3.99
2022-12-23T18:19:19.940Z,4.04
2022-12-23T18:21:48.548Z,4.00
2022-12-23T18:24:18.775Z,4.05
2022-12-23T18:26:47.652Z,4.13
2022-12-23T18:29:16.313Z,4.33
2022-12-23T18:31:51.627Z,4.27
2022-12-23T18:34:21.531Z,4.38
2022-12-23T18:36:51.717Z,4.39
2022-12-23T18:39:21.855Z,4.14
2022-12-23T18:41:50.243Z,4.10
2022-12-23T18:44:21.168Z,4.08
2022-12-23T18:46:50.237Z,3.98
2022-12-23T18:49:18.565Z,3.97
2022-12-23T18:51:46.944Z,4.02
2022-12-23T18:54:15.735Z,4.05
2022-12-23T18:56:45.680Z,4.19
2022-12-23T18:59:27.344Z,4.14
2022-12-23T19:01:57.481Z,4.14
2022-12-23T19:04:26.341Z,4.24
2022-12-23T19:06:55.999Z,4.21
2022-12-23T19:09:26.037Z,4.31
2022-12-23T19:11:55.567Z,4.30
2022-12-23T19:14:23.848Z,4.34
2022-12-23T19:16:52.809Z,4.44
2022-12-23T19:19:24.079Z,4.32
2022-12-23T19:21:52.913Z,4.34
2022-12-23T19:24:21.056Z,4.36
2022-12-23T19:26:49.273Z,4.41
2022-12-23T19:29:18.920Z,4.41
2022-12-23T19:31:47.083Z,4.33
2022-12-23T19:34:16.011Z,4.21
2022-12-23T19:36:44.721Z,4.08
2022-12-23T19:39:16.620Z,3.99
2022-12-23T19:41:45.621Z,3.87
2022-12-23T19:44:14.036Z,3.82
2022-12-23T19:46:43.903Z,3.80
2022-12-23T19:49:17.754Z,3.74
2022-12-23T19:51:47.935Z,3.63
2022-12-23T19:54:16.183Z,3.59
2022-12-23T19:56:44.691Z,3.61
2022-12-23T19:59:14.085Z,3.59
2022-12-23T20:01:43.769Z,3.59
2022-12-23T20:04:12.544Z,3.61
2022-12-23T20:06:41.944Z,3.70
2022-12-23T20:09:12.356Z,3.73
2022-12-23T20:11:42.639Z,3.80
2022-12-23T20:14:11.781Z,3.83
2022-12-23T20:16:41.861Z,3.88
2022-12-23T20:19:12.380Z,3.82
2022-12-23T20:21:40.454Z,3.70
2022-12-23T20:24:09.189Z,3.70
2022-12-23T20:26:37.403Z,3.67
2022-12-23T20:29:05.684Z,3.64
2022-12-23T20:31:35.599Z,3.70
2022-12-23T20:34:03.865Z,3.78
2022-12-23T20:36:35.702Z,3.95
2022-12-23T20:39:05.132Z,3.93
2022-12-23T20:41:33.945Z,3.93
2022-12-23T20:44:32.975Z,3.95
2022-12-23T20:46:50.519Z,3.99
2022-12-23T20:49:18.633Z,4.07
2022-12-23T20:51:48.214Z,4.24
2022-12-23T20:54:16.324Z,4.47
2022-12-23T20:56:44.450Z,4.69
2022-12-23T20:59:12.652Z,4.74
2022-12-23T21:01:42.770Z,4.67
2022-12-23T21:04:13.008Z,4.65
2022-12-23T21:06:41.437Z,4.72
2022-12-23T21:09:12.599Z,4.60
2022-12-23T21:11:43.592Z,4.67
2022-12-23T21:14:12.089Z,4.63
2022-12-23T21:16:40.394Z,4.61
2022-12-23T21:19:10.124Z,4.53
2022-12-23T21:21:38.234Z,4.52
2022-12-23T21:24:06.933Z,4.51
2022-12-23T21:26:36.609Z,4.58
2022-12-23T21:29:06.584Z,4.70
2022-12-23T21:31:37.332Z,4.84
2022-12-23T21:34:06.512Z,4.93
2022-12-23T21:36:37.804Z,4.90
2022-12-23T21:39:06.791Z,4.81
2022-12-23T21:41:38.894Z,4.82
2022-12-23T21:44:07.410Z,4.69
2022-12-23T21:46:35.812Z,4.65
2022-12-23T21:49:04.401Z,4.69
2022-12-23T21:51:41.928Z,4.70
2022-12-23T21:54:11.125Z,4.73
2022-12-23T21:56:41.863Z,4.67
2022-12-23T21:59:13.586Z,4.65
2022-12-23T22:01:42.305Z,4.60
2022-12-23T22:04:10.701Z,4.54
2022-12-23T22:06:41.389Z,4.49
2022-12-23T22:09:11.795Z,4.40
2022-12-23T22:11:41.431Z,4.41
2022-12-23T22:14:12.809Z,4.33
2022-12-23T22:16:40.969Z,4.23
2022-12-23T22:19:09.870Z,4.13
2022-12-23T22:21:39.776Z,4.01
2022-12-23T22:24:08.570Z,3.90
2022-12-23T22:26:37.001Z,3.84
2022-12-23T22:29:07.730Z,3.80
2022-12-23T22:31:40.090Z,3.89
2022-12-23T22:34:10.326Z,3.87
2022-12-23T22:36:38.518Z,3.89
2022-12-23T22:39:07.998Z,3.88
2022-12-23T22:41:36.713Z,3.97
2022-12-23T22:44:06.547Z,3.99
2022-12-23T22:46:34.725Z,3.97
2022-12-23T22:49:02.772Z,3.94
2022-12-23T22:51:32.591Z,4.00
2022-12-23T22:54:03.597Z,4.01
2022-12-23T22:56:31.815Z,4.03
2022-12-23T22:58:59.934Z,4.00
2022-12-23T23:01:31.812Z,4.01
2022-12-23T23:04:01.326Z,4.04
2022-12-23T23:06:31.753Z,4.13
2022-12-23T23:09:00.094Z,4.13
2022-12-23T23:11:29.045Z,4.15
2022-12-23T23:13:57.219Z,4.39
2022-12-23T23:16:26.398Z,4.53
2022-12-23T23:18:56.432Z,4.61
2022-12-23T23:21:24.600Z,4.53
2022-12-23T23:23:52.887Z,4.48
2022-12-23T23:26:21.962Z,4.39
2022-12-23T23:28:50.251Z,4.33
2022-12-23T23:34:08.016Z,4.28
2022-12-23T23:36:36.180Z,4.29
2022-12-23T23:39:04.351Z,4.22
2022-12-23T23:41:32.997Z,4.21
2022-12-23T23:44:01.124Z,4.16
2022-12-23T23:46:30.745Z,4.14
2022-12-23T23:48:58.982Z,4.12
2022-12-23T23:51:28.903Z,4.09
2022-12-23T23:53:57.153Z,4.06
2022-12-23T23:56:27.288Z,4.03
2022-12-23T23:58:57.092Z,4.04
